sensor_id;sensor_type;location;lat;lon;timestamp;P1;durP1;ratioP1;P2;durP2;ratioP2
44147;SDS011;29810;55.848;37.368;2023-06-19T00:02:23;7.97;;;3.28;;
44147;SDS011;29810;55.848;37.368;2023-06-19T00:05:26;5.07;;;3.00;;
44147;SDS011;29810;55.848;37.368;2023-06-19T00:08:27;5.05;;;2.72;;
44147;SDS011;29810;55.848;37.368;2023-06-19T00:11:30;6.22;;;2.80;;
44147;SDS011;29810;55.848;37.368;2023-06-19T00:14:32;4.30;;;2.60;;
44147;SDS011;29810;55.848;37.368;2023-06-19T00:17:37;4.90;;;2.78;;
44147;SDS011;29810;55.848;37.368;2023-06-19T00:20:38;4.80;;;2.80;;
44147;SDS011;29810;55.848;37.368;2023-06-19T00:23:42;6.62;;;2.58;;
44147;SDS011;29810;55.848;37.368;2023-06-19T00:26:43;3.95;;;2.70;;
44147;SDS011;29810;55.848;37.368;2023-06-19T00:29:46;5.15;;;2.92;;
44147;SDS011;29810;55.848;37.368;2023-06-19T00:32:47;5.85;;;3.03;;
44147;SDS011;29810;55.848;37.368;2023-06-19T00:35:51;6.45;;;2.87;;
44147;SDS011;29810;55.848;37.368;2023-06-19T00:38:53;5.28;;;2.70;;
44147;SDS011;29810;55.848;37.368;2023-06-19T00:41:55;4.90;;;2.97;;
44147;SDS011;29810;55.848;37.368;2023-06-19T00:44:57;4.47;;;2.90;;
44147;SDS011;29810;55.848;37.368;2023-06-19T00:48:00;7.20;;;2.95;;
44147;SDS011;29810;55.848;37.368;2023-06-19T00:51:02;5.40;;;3.22;;
44147;SDS011;29810;55.848;37.368;2023-06-19T00:54:05;5.78;;;3.00;;
44147;SDS011;29810;55.848;37.368;2023-06-19T00:57:08;4.97;;;2.92;;
44147;SDS011;29810;55.848;37.368;2023-06-19T01:00:12;7.30;;;3.65;;
44147;SDS011;29810;55.848;37.368;2023-06-19T01:03:14;9.05;;;3.60;;
44147;SDS011;29810;55.848;37.368;2023-06-19T01:06:23;5.70;;;3.70;;
44147;SDS011;29810;55.848;37.368;2023-06-19T01:09:44;8.95;;;3.72;;
44147;SDS011;29810;55.848;37.368;2023-06-19T01:13:01;9.02;;;3.97;;
44147;SDS011;29810;55.848;37.368;2023-06-19T01:16:08;6.80;;;3.92;;
44147;SDS011;29810;55.848;37.368;2023-06-19T01:19:13;8.70;;;3.70;;
44147;SDS011;29810;55.848;37.368;2023-06-19T01:22:30;6.72;;;3.90;;
44147;SDS011;29810;55.848;37.368;2023-06-19T01:25:35;8.45;;;4.20;;
44147;SDS011;29810;55.848;37.368;2023-06-19T01:28:38;11.20;;;4.30;;
44147;SDS011;29810;55.848;37.368;2023-06-19T01:35:02;12.65;;;4.68;;
44147;SDS011;29810;55.848;37.368;2023-06-19T01:38:07;9.77;;;4.30;;
44147;SDS011;29810;55.848;37.368;2023-06-19T01:41:09;10.45;;;4.62;;
44147;SDS011;29810;55.848;37.368;2023-06-19T01:44:16;9.27;;;4.22;;
44147;SDS011;29810;55.848;37.368;2023-06-19T01:47:20;12.27;;;4.40;;
44147;SDS011;29810;55.848;37.368;2023-06-19T01:50:23;8.88;;;3.97;;
44147;SDS011;29810;55.848;37.368;2023-06-19T01:53:25;11.68;;;4.12;;
44147;SDS011;29810;55.848;37.368;2023-06-19T01:56:30;11.20;;;4.10;;
44147;SDS011;29810;55.848;37.368;2023-06-19T01:59:32;7.90;;;4.22;;
44147;SDS011;29810;55.848;37.368;2023-06-19T02:02:35;10.90;;;3.72;;
44147;SDS011;29810;55.848;37.368;2023-06-19T02:05:39;9.75;;;4.43;;
44147;SDS011;29810;55.848;37.368;2023-06-19T02:08:40;10.32;;;4.15;;
44147;SDS011;29810;55.848;37.368;2023-06-19T02:11:45;10.70;;;4.60;;
44147;SDS011;29810;55.848;37.368;2023-06-19T02:14:47;11.68;;;4.50;;
44147;SDS011;29810;55.848;37.368;2023-06-19T02:17:49;11.57;;;4.05;;
44147;SDS011;29810;55.848;37.368;2023-06-19T02:20:57;11.52;;;3.92;;
44147;SDS011;29810;55.848;37.368;2023-06-19T02:23:59;10.60;;;4.32;;
44147;SDS011;29810;55.848;37.368;2023-06-19T02:27:01;10.07;;;3.90;;
44147;SDS011;29810;55.848;37.368;2023-06-19T02:30:03;13.35;;;4.55;;
44147;SDS011;29810;55.848;37.368;2023-06-19T02:33:07;11.20;;;4.68;;
44147;SDS011;29810;55.848;37.368;2023-06-19T02:36:08;9.30;;;4.00;;
44147;SDS011;29810;55.848;37.368;2023-06-19T02:39:14;10.82;;;4.68;;
44147;SDS011;29810;55.848;37.368;2023-06-19T02:42:16;8.85;;;4.10;;
44147;SDS011;29810;55.848;37.368;2023-06-19T02:45:21;8.68;;;4.10;;
44147;SDS011;29810;55.848;37.368;2023-06-19T02:48:26;9.67;;;4.03;;
44147;SDS011;29810;55.848;37.368;2023-06-19T02:51:31;12.23;;;3.90;;
44147;SDS011;29810;55.848;37.368;2023-06-19T02:54:33;9.88;;;3.90;;
44147;SDS011;29810;55.848;37.368;2023-06-19T02:57:37;7.45;;;3.70;;
44147;SDS011;29810;55.848;37.368;2023-06-19T03:00:40;10.85;;;3.97;;
44147;SDS011;29810;55.848;37.368;2023-06-19T03:03:51;9.10;;;3.67;;
44147;SDS011;29810;55.848;37.368;2023-06-19T03:06:53;9.18;;;3.70;;
44147;SDS011;29810;55.848;37.368;2023-06-19T03:09:58;8.47;;;3.70;;
44147;SDS011;29810;55.848;37.368;2023-06-19T03:13:00;7.53;;;3.70;;
44147;SDS011;29810;55.848;37.368;2023-06-19T03:16:04;7.37;;;3.97;;
44147;SDS011;29810;55.848;37.368;2023-06-19T03:19:05;8.63;;;3.70;;
44147;SDS011;29810;55.848;37.368;2023-06-19T03:22:09;6.10;;;3.70;;
44147;SDS011;29810;55.848;37.368;2023-06-19T03:25:11;8.32;;;3.72;;
44147;SDS011;29810;55.848;37.368;2023-06-19T03:28:14;6.28;;;3.40;;
44147;SDS011;29810;55.848;37.368;2023-06-19T03:31:16;4.93;;;3.50;;
44147;SDS011;29810;55.848;37.368;2023-06-19T03:34:21;6.22;;;3.40;;
44147;SDS011;29810;55.848;37.368;2023-06-19T03:37:26;6.68;;;3.45;;
44147;SDS011;29810;55.848;37.368;2023-06-19T03:40:30;6.03;;;3.40;;
44147;SDS011;29810;55.848;37.368;2023-06-19T03:43:32;6.07;;;3.62;;
44147;SDS011;29810;55.848;37.368;2023-06-19T03:46:35;4.72;;;3.08;;
44147;SDS011;29810;55.848;37.368;2023-06-19T03:49:36;5.87;;;3.30;;
44147;SDS011;29810;55.848;37.368;2023-06-19T03:52:41;5.57;;;3.00;;
44147;SDS011;29810;55.848;37.368;2023-06-19T03:55:42;4.30;;;2.70;;
44147;SDS011;29810;55.848;37.368;2023-06-19T03:58:47;6.90;;;3.10;;
44147;SDS011;29810;55.848;37.368;2023-06-19T04:01:50;6.68;;;5.05;;
44147;SDS011;29810;55.848;37.368;2023-06-19T04:04:53;5.28;;;2.80;;
44147;SDS011;29810;55.848;37.368;2023-06-19T04:07:54;5.68;;;2.83;;
44147;SDS011;29810;55.848;37.368;2023-06-19T04:10:58;4.12;;;2.67;;
44147;SDS011;29810;55.848;37.368;2023-06-19T04:14:02;6.70;;;2.75;;
44147;SDS011;29810;55.848;37.368;2023-06-19T04:17:05;7.72;;;2.55;;
44147;SDS011;29810;55.848;37.368;2023-06-19T04:20:07;4.18;;;2.50;;
44147;SDS011;29810;55.848;37.368;2023-06-19T04:23:15;4.72;;;2.20;;
44147;SDS011;29810;55.848;37.368;2023-06-19T04:26:16;3.80;;;2.42;;
44147;SDS011;29810;55.848;37.368;2023-06-19T04:29:21;5.27;;;2.20;;
44147;SDS011;29810;55.848;37.368;2023-06-19T04:32:23;6.03;;;2.30;;
44147;SDS011;29810;55.848;37.368;2023-06-19T04:35:30;5.50;;;2.60;;
44147;SDS011;29810;55.848;37.368;2023-06-19T04:38:31;5.80;;;2.40;;
44147;SDS011;29810;55.848;37.368;2023-06-19T04:41:36;4.70;;;2.70;;
44147;SDS011;29810;55.848;37.368;2023-06-19T04:44:39;4.00;;;2.42;;
44147;SDS011;29810;55.848;37.368;2023-06-19T04:47:44;4.78;;;2.40;;
44147;SDS011;29810;55.848;37.368;2023-06-19T04:50:46;4.00;;;2.30;;
44147;SDS011;29810;55.848;37.368;2023-06-19T04:53:50;4.72;;;2.20;;
44147;SDS011;29810;55.848;37.368;2023-06-19T04:56:51;5.30;;;2.53;;
44147;SDS011;29810;55.848;37.368;2023-06-19T04:59:56;4.85;;;2.30;;
44147;SDS011;29810;55.848;37.368;2023-06-19T05:02:58;3.00;;;2.25;;
44147;SDS011;29810;55.848;37.368;2023-06-19T05:06:04;3.17;;;2.05;;
44147;SDS011;29810;55.848;37.368;2023-06-19T05:09:05;3.53;;;2.40;;
44147;SDS011;29810;55.848;37.368;2023-06-19T05:12:09;5.85;;;2.20;;
44147;SDS011;29810;55.848;37.368;2023-06-19T05:15:11;6.12;;;2.25;;
44147;SDS011;29810;55.848;37.368;2023-06-19T05:18:14;3.87;;;2.50;;
44147;SDS011;29810;55.848;37.368;2023-06-19T05:21:15;3.87;;;2.60;;
44147;SDS011;29810;55.848;37.368;2023-06-19T05:24:19;6.25;;;2.80;;
44147;SDS011;29810;55.848;37.368;2023-06-19T05:27:20;5.25;;;2.40;;
44147;SDS011;29810;55.848;37.368;2023-06-19T05:30:23;7.20;;;2.70;;
44147;SDS011;29810;55.848;37.368;2023-06-19T05:33:25;4.80;;;2.83;;
44147;SDS011;29810;55.848;37.368;2023-06-19T05:36:29;5.22;;;2.83;;
44147;SDS011;29810;55.848;37.368;2023-06-19T05:39:30;6.05;;;2.70;;
44147;SDS011;29810;55.848;37.368;2023-06-19T05:42:34;7.20;;;2.80;;
44147;SDS011;29810;55.848;37.368;2023-06-19T05:45:35;12.65;;;2.90;;
44147;SDS011;29810;55.848;37.368;2023-06-19T05:48:39;4.60;;;2.55;;
44147;SDS011;29810;55.848;37.368;2023-06-19T05:51:41;7.40;;;2.95;;
44147;SDS011;29810;55.848;37.368;2023-06-19T05:54:45;7.97;;;2.67;;
44147;SDS011;29810;55.848;37.368;2023-06-19T05:57:46;8.43;;;2.67;;
44147;SDS011;29810;55.848;37.368;2023-06-19T06:00:50;9.85;;;2.87;;
44147;SDS011;29810;55.848;37.368;2023-06-19T06:03:54;7.97;;;2.90;;
44147;SDS011;29810;55.848;37.368;2023-06-19T06:06:57;8.35;;;2.58;;
44147;SDS011;29810;55.848;37.368;2023-06-19T06:10:01;6.30;;;2.55;;
44147;SDS011;29810;55.848;37.368;2023-06-19T06:13:04;4.57;;;2.20;;
44147;SDS011;29810;55.848;37.368;2023-06-19T06:16:07;4.32;;;2.60;;
44147;SDS011;29810;55.848;37.368;2023-06-19T06:19:08;5.25;;;2.35;;
44147;SDS011;29810;55.848;37.368;2023-06-19T06:22:14;7.43;;;2.40;;
44147;SDS011;29810;55.848;37.368;2023-06-19T06:25:15;4.20;;;2.37;;
44147;SDS011;29810;55.848;37.368;2023-06-19T06:28:18;4.50;;;2.80;;
44147;SDS011;29810;55.848;37.368;2023-06-19T06:31:19;6.95;;;2.55;;
44147;SDS011;29810;55.848;37.368;2023-06-19T06:34:22;5.12;;;2.55;;
44147;SDS011;29810;55.848;37.368;2023-06-19T06:37:23;6.50;;;2.50;;
44147;SDS011;29810;55.848;37.368;2023-06-19T06:40:26;7.80;;;2.60;;
44147;SDS011;29810;55.848;37.368;2023-06-19T06:43:28;7.50;;;2.87;;
44147;SDS011;29810;55.848;37.368;2023-06-19T06:46:31;3.42;;;2.40;;
44147;SDS011;29810;55.848;37.368;2023-06-19T06:49:33;7.37;;;2.33;;
44147;SDS011;29810;55.848;37.368;2023-06-19T06:52:36;5.85;;;2.53;;
44147;SDS011;29810;55.848;37.368;2023-06-19T06:55:38;6.43;;;2.37;;
44147;SDS011;29810;55.848;37.368;2023-06-19T06:58:44;4.20;;;2.60;;
44147;SDS011;29810;55.848;37.368;2023-06-19T07:01:48;5.60;;;2.50;;
44147;SDS011;29810;55.848;37.368;2023-06-19T07:04:55;6.22;;;2.53;;
44147;SDS011;29810;55.848;37.368;2023-06-19T07:07:56;4.07;;;2.80;;
44147;SDS011;29810;55.848;37.368;2023-06-19T07:11:05;5.10;;;2.50;;
44147;SDS011;29810;55.848;37.368;2023-06-19T07:14:10;5.68;;;2.58;;
44147;SDS011;29810;55.848;37.368;2023-06-19T07:17:19;4.95;;;2.60;;
44147;SDS011;29810;55.848;37.368;2023-06-19T07:20:20;5.95;;;2.50;;
44147;SDS011;29810;55.848;37.368;2023-06-19T07:23:24;4.97;;;2.72;;
44147;SDS011;29810;55.848;37.368;2023-06-19T07:26:26;5.03;;;2.75;;
44147;SDS011;29810;55.848;37.368;2023-06-19T07:29:29;3.87;;;2.33;;
44147;SDS011;29810;55.848;37.368;2023-06-19T07:32:30;5.18;;;2.80;;
44147;SDS011;29810;55.848;37.368;2023-06-19T07:35:33;5.78;;;2.60;;
44147;SDS011;29810;55.848;37.368;2023-06-19T07:38:34;6.70;;;2.78;;
44147;SDS011;29810;55.848;37.368;2023-06-19T07:41:37;6.07;;;2.58;;
44147;SDS011;29810;55.848;37.368;2023-06-19T07:44:39;4.50;;;2.30;;
44147;SDS011;29810;55.848;37.368;2023-06-19T07:47:42;4.70;;;2.60;;
44147;SDS011;29810;55.848;37.368;2023-06-19T07:50:44;4.10;;;2.35;;
44147;SDS011;29810;55.848;37.368;2023-06-19T07:53:53;6.80;;;2.78;;
44147;SDS011;29810;55.848;37.368;2023-06-19T07:56:54;3.78;;;2.72;;
44147;SDS011;29810;55.848;37.368;2023-06-19T07:59:58;7.10;;;2.45;;
44147;SDS011;29810;55.848;37.368;2023-06-19T08:03:00;4.55;;;2.75;;
44147;SDS011;29810;55.848;37.368;2023-06-19T08:06:03;3.40;;;2.58;;
44147;SDS011;29810;55.848;37.368;2023-06-19T08:09:04;4.93;;;2.62;;
44147;SDS011;29810;55.848;37.368;2023-06-19T08:12:08;5.75;;;2.50;;
44147;SDS011;29810;55.848;37.368;2023-06-19T08:15:10;4.75;;;2.50;;
44147;SDS011;29810;55.848;37.368;2023-06-19T08:18:15;5.87;;;2.40;;
44147;SDS011;29810;55.848;37.368;2023-06-19T08:21:18;6.10;;;2.95;;
44147;SDS011;29810;55.848;37.368;2023-06-19T08:24:23;4.93;;;2.53;;
44147;SDS011;29810;55.848;37.368;2023-06-19T08:27:25;3.87;;;2.80;;
44147;SDS011;29810;55.848;37.368;2023-06-19T08:30:33;4.37;;;2.58;;
44147;SDS011;29810;55.848;37.368;2023-06-19T08:33:36;8.32;;;3.00;;
44147;SDS011;29810;55.848;37.368;2023-06-19T08:36:40;4.97;;;2.53;;
44147;SDS011;29810;55.848;37.368;2023-06-19T08:39:41;7.82;;;2.70;;
44147;SDS011;29810;55.848;37.368;2023-06-19T08:42:45;5.30;;;2.92;;
44147;SDS011;29810;55.848;37.368;2023-06-19T08:46:01;3.92;;;2.33;;
44147;SDS011;29810;55.848;37.368;2023-06-19T08:52:15;5.55;;;3.20;;
44147;SDS011;29810;55.848;37.368;2023-06-19T08:55:18;5.47;;;2.78;;
44147;SDS011;29810;55.848;37.368;2023-06-19T08:58:21;5.78;;;2.83;;
44147;SDS011;29810;55.848;37.368;2023-06-19T09:01:26;5.68;;;3.10;;
44147;SDS011;29810;55.848;37.368;2023-06-19T09:04:28;4.80;;;2.65;;
44147;SDS011;29810;55.848;37.368;2023-06-19T09:07:33;4.18;;;2.70;;
44147;SDS011;29810;55.848;37.368;2023-06-19T09:10:34;4.45;;;2.53;;
44147;SDS011;29810;55.848;37.368;2023-06-19T09:13:38;5.55;;;2.60;;
44147;SDS011;29810;55.848;37.368;2023-06-19T09:16:40;4.95;;;2.70;;
44147;SDS011;29810;55.848;37.368;2023-06-19T09:19:50;3.55;;;2.45;;
44147;SDS011;29810;55.848;37.368;2023-06-19T09:22:57;4.10;;;2.67;;
44147;SDS011;29810;55.848;37.368;2023-06-19T09:26:01;5.62;;;2.40;;
44147;SDS011;29810;55.848;37.368;2023-06-19T09:29:11;7.12;;;2.65;;
44147;SDS011;29810;55.848;37.368;2023-06-19T09:32:22;4.22;;;2.67;;
44147;SDS011;29810;55.848;37.368;2023-06-19T09:35:24;6.90;;;2.62;;
44147;SDS011;29810;55.848;37.368;2023-06-19T09:38:31;4.50;;;2.47;;
44147;SDS011;29810;55.848;37.368;2023-06-19T09:41:42;8.52;;;2.42;;
44147;SDS011;29810;55.848;37.368;2023-06-19T09:44:48;4.15;;;2.70;;
44147;SDS011;29810;55.848;37.368;2023-06-19T09:47:52;5.87;;;3.03;;
44147;SDS011;29810;55.848;37.368;2023-06-19T09:51:06;6.95;;;2.92;;
44147;SDS011;29810;55.848;37.368;2023-06-19T09:54:14;4.93;;;2.60;;
44147;SDS011;29810;55.848;37.368;2023-06-19T09:57:27;4.85;;;2.85;;
44147;SDS011;29810;55.848;37.368;2023-06-19T10:00:29;5.78;;;2.70;;
44147;SDS011;29810;55.848;37.368;2023-06-19T10:03:36;5.90;;;2.78;;
44147;SDS011;29810;55.848;37.368;2023-06-19T10:06:44;5.68;;;2.80;;
44147;SDS011;29810;55.848;37.368;2023-06-19T10:13:16;4.37;;;2.80;;
44147;SDS011;29810;55.848;37.368;2023-06-19T10:16:21;7.70;;;2.90;;
44147;SDS011;29810;55.848;37.368;2023-06-19T10:19:23;5.32;;;3.00;;
44147;SDS011;29810;55.848;37.368;2023-06-19T10:22:32;5.20;;;3.05;;
44147;SDS011;29810;55.848;37.368;2023-06-19T10:25:35;4.50;;;2.50;;
44147;SDS011;29810;55.848;37.368;2023-06-19T10:28:45;3.60;;;2.62;;
44147;SDS011;29810;55.848;37.368;2023-06-19T10:31:49;5.18;;;2.50;;
44147;SDS011;29810;55.848;37.368;2023-06-19T10:34:55;7.32;;;2.92;;
44147;SDS011;29810;55.848;37.368;2023-06-19T10:37:57;4.95;;;2.90;;
44147;SDS011;29810;55.848;37.368;2023-06-19T10:41:02;4.15;;;2.50;;
44147;SDS011;29810;55.848;37.368;2023-06-19T10:44:04;6.43;;;2.90;;
44147;SDS011;29810;55.848;37.368;2023-06-19T10:47:10;5.10;;;2.87;;
44147;SDS011;29810;55.848;37.368;2023-06-19T10:50:15;4.25;;;2.60;;
44147;SDS011;29810;55.848;37.368;2023-06-19T10:53:29;7.20;;;2.90;;
44147;SDS011;29810;55.848;37.368;2023-06-19T10:56:32;4.15;;;2.70;;
44147;SDS011;29810;55.848;37.368;2023-06-19T10:59:35;6.25;;;2.83;;
44147;SDS011;29810;55.848;37.368;2023-06-19T11:02:38;8.77;;;2.60;;
44147;SDS011;29810;55.848;37.368;2023-06-19T11:05:43;4.68;;;2.70;;
44147;SDS011;29810;55.848;37.368;2023-06-19T11:08:50;5.40;;;2.72;;
44147;SDS011;29810;55.848;37.368;2023-06-19T11:11:54;4.43;;;2.35;;
44147;SDS011;29810;55.848;37.368;2023-06-19T11:14:55;6.72;;;2.72;;
44147;SDS011;29810;55.848;37.368;2023-06-19T11:17:59;6.10;;;2.72;;
44147;SDS011;29810;55.848;37.368;2023-06-19T11:21:02;5.18;;;2.90;;
44147;SDS011;29810;55.848;37.368;2023-06-19T11:24:10;4.85;;;2.87;;
44147;SDS011;29810;55.848;37.368;2023-06-19T11:27:16;6.32;;;2.70;;
44147;SDS011;29810;55.848;37.368;2023-06-19T11:30:29;4.97;;;2.80;;
44147;SDS011;29810;55.848;37.368;2023-06-19T11:33:32;4.80;;;2.70;;
44147;SDS011;29810;55.848;37.368;2023-06-19T11:36:38;7.05;;;3.00;;
44147;SDS011;29810;55.848;37.368;2023-06-19T11:39:44;3.47;;;2.40;;
44147;SDS011;29810;55.848;37.368;2023-06-19T11:42:49;7.05;;;2.83;;
44147;SDS011;29810;55.848;37.368;2023-06-19T11:45:54;4.43;;;2.70;;
44147;SDS011;29810;55.848;37.368;2023-06-19T11:49:11;4.75;;;2.78;;
44147;SDS011;29810;55.848;37.368;2023-06-19T11:52:14;4.30;;;2.75;;
44147;SDS011;29810;55.848;37.368;2023-06-19T11:55:18;4.43;;;2.62;;
44147;SDS011;29810;55.848;37.368;2023-06-19T11:58:20;4.18;;;3.05;;
44147;SDS011;29810;55.848;37.368;2023-06-19T12:01:24;4.68;;;2.83;;
44147;SDS011;29810;55.848;37.368;2023-06-19T12:04:28;6.72;;;2.90;;
44147;SDS011;29810;55.848;37.368;2023-06-19T12:07:30;5.50;;;2.90;;
44147;SDS011;29810;55.848;37.368;2023-06-19T12:10:33;4.40;;;2.80;;
44147;SDS011;29810;55.848;37.368;2023-06-19T12:13:35;4.75;;;2.90;;
44147;SDS011;29810;55.848;37.368;2023-06-19T12:16:38;6.18;;;2.75;;
44147;SDS011;29810;55.848;37.368;2023-06-19T12:19:40;7.15;;;2.75;;
44147;SDS011;29810;55.848;37.368;2023-06-19T12:22:42;7.18;;;2.87;;
44147;SDS011;29810;55.848;37.368;2023-06-19T12:25:44;4.60;;;2.95;;
44147;SDS011;29810;55.848;37.368;2023-06-19T12:28:48;5.68;;;3.00;;
44147;SDS011;29810;55.848;37.368;2023-06-19T12:31:49;6.57;;;2.97;;
44147;SDS011;29810;55.848;37.368;2023-06-19T12:34:52;7.97;;;2.95;;
44147;SDS011;29810;55.848;37.368;2023-06-19T12:37:55;5.18;;;2.70;;
44147;SDS011;29810;55.848;37.368;2023-06-19T12:40:57;3.37;;;2.60;;
44147;SDS011;29810;55.848;37.368;2023-06-19T12:43:59;5.35;;;2.75;;
44147;SDS011;29810;55.848;37.368;2023-06-19T12:47:02;3.30;;;2.55;;
44147;SDS011;29810;55.848;37.368;2023-06-19T12:50:05;5.82;;;2.67;;
44147;SDS011;29810;55.848;37.368;2023-06-19T12:53:08;3.50;;;2.70;;
44147;SDS011;29810;55.848;37.368;2023-06-19T12:56:10;4.75;;;2.80;;
44147;SDS011;29810;55.848;37.368;2023-06-19T12:59:13;3.80;;;2.58;;
44147;SDS011;29810;55.848;37.368;2023-06-19T13:02:14;3.80;;;2.65;;
44147;SDS011;29810;55.848;37.368;2023-06-19T13:05:18;6.25;;;2.80;;
44147;SDS011;29810;55.848;37.368;2023-06-19T13:08:19;5.97;;;2.70;;
44147;SDS011;29810;55.848;37.368;2023-06-19T13:11:24;6.25;;;2.70;;
44147;SDS011;29810;55.848;37.368;2023-06-19T13:14:26;3.70;;;2.60;;
44147;SDS011;29810;55.848;37.368;2023-06-19T13:17:29;4.30;;;2.92;;
44147;SDS011;29810;55.848;37.368;2023-06-19T13:20:30;5.53;;;3.03;;
44147;SDS011;29810;55.848;37.368;2023-06-19T13:23:34;6.22;;;3.08;;
44147;SDS011;29810;55.848;37.368;2023-06-19T13:26:36;5.95;;;3.58;;
44147;SDS011;29810;55.848;37.368;2023-06-19T13:29:39;5.43;;;3.60;;
44147;SDS011;29810;55.848;37.368;2023-06-19T13:32:41;3.90;;;3.22;;
44147;SDS011;29810;55.848;37.368;2023-06-19T13:35:44;5.87;;;3.58;;
44147;SDS011;29810;55.848;37.368;2023-06-19T13:38:46;10.18;;;5.03;;
44147;SDS011;29810;55.848;37.368;2023-06-19T13:41:50;6.20;;;3.90;;
44147;SDS011;29810;55.848;37.368;2023-06-19T13:44:51;7.60;;;4.20;;
44147;SDS011;29810;55.848;37.368;2023-06-19T13:47:54;7.85;;;3.55;;
44147;SDS011;29810;55.848;37.368;2023-06-19T13:50:55;5.03;;;3.08;;
44147;SDS011;29810;55.848;37.368;2023-06-19T13:54:01;5.40;;;2.85;;
44147;SDS011;29810;55.848;37.368;2023-06-19T13:57:05;5.97;;;3.17;;
44147;SDS011;29810;55.848;37.368;2023-06-19T14:00:09;6.35;;;3.10;;
44147;SDS011;29810;55.848;37.368;2023-06-19T14:03:13;7.55;;;2.70;;
44147;SDS011;29810;55.848;37.368;2023-06-19T14:06:16;7.80;;;3.10;;
44147;SDS011;29810;55.848;37.368;2023-06-19T14:09:17;5.80;;;2.90;;
44147;SDS011;29810;55.848;37.368;2023-06-19T14:12:20;5.25;;;2.60;;
44147;SDS011;29810;55.848;37.368;2023-06-19T14:15:22;7.03;;;3.03;;
44147;SDS011;29810;55.848;37.368;2023-06-19T14:18:26;3.92;;;2.60;;
44147;SDS011;29810;55.848;37.368;2023-06-19T14:21:27;4.60;;;2.53;;
44147;SDS011;29810;55.848;37.368;2023-06-19T14:24:30;3.25;;;2.50;;
44147;SDS011;29810;55.848;37.368;2023-06-19T14:27:31;4.32;;;2.70;;
44147;SDS011;29810;55.848;37.368;2023-06-19T14:30:35;4.53;;;2.30;;
44147;SDS011;29810;55.848;37.368;2023-06-19T14:33:37;3.72;;;2.58;;
44147;SDS011;29810;55.848;37.368;2023-06-19T14:36:40;7.78;;;2.95;;
44147;SDS011;29810;55.848;37.368;2023-06-19T14:39:41;4.22;;;2.42;;
44147;SDS011;29810;55.848;37.368;2023-06-19T14:42:44;7.05;;;2.85;;
44147;SDS011;29810;55.848;37.368;2023-06-19T14:45:46;4.55;;;2.85;;
44147;SDS011;29810;55.848;37.368;2023-06-19T14:48:50;5.43;;;2.72;;
44147;SDS011;29810;55.848;37.368;2023-06-19T14:51:52;5.40;;;2.80;;
44147;SDS011;29810;55.848;37.368;2023-06-19T14:54:55;4.85;;;2.22;;
44147;SDS011;29810;55.848;37.368;2023-06-19T14:57:56;4.55;;;2.55;;
44147;SDS011;29810;55.848;37.368;2023-06-19T15:01:00;4.03;;;2.60;;
44147;SDS011;29810;55.848;37.368;2023-06-19T15:04:02;5.10;;;2.83;;
44147;SDS011;29810;55.848;37.368;2023-06-19T15:07:04;4.22;;;2.62;;
44147;SDS011;29810;55.848;37.368;2023-06-19T15:10:06;4.85;;;2.83;;
44147;SDS011;29810;55.848;37.368;2023-06-19T15:13:09;8.27;;;2.72;;
44147;SDS011;29810;55.848;37.368;2023-06-19T15:16:10;6.15;;;2.85;;
44147;SDS011;29810;55.848;37.368;2023-06-19T15:19:15;5.03;;;3.10;;
44147;SDS011;29810;55.848;37.368;2023-06-19T15:22:16;6.90;;;2.58;;
44147;SDS011;29810;55.848;37.368;2023-06-19T15:25:19;5.05;;;2.83;;
44147;SDS011;29810;55.848;37.368;2023-06-19T15:28:20;6.22;;;2.92;;
44147;SDS011;29810;55.848;37.368;2023-06-19T15:31:25;4.05;;;2.65;;
44147;SDS011;29810;55.848;37.368;2023-06-19T15:34:26;4.55;;;2.95;;
44147;SDS011;29810;55.848;37.368;2023-06-19T15:37:30;5.97;;;3.20;;
44147;SDS011;29810;55.848;37.368;2023-06-19T15:40:31;6.18;;;2.83;;
44147;SDS011;29810;55.848;37.368;2023-06-19T15:43:34;4.70;;;3.05;;
44147;SDS011;29810;55.848;37.368;2023-06-19T15:46:35;4.93;;;2.78;;
44147;SDS011;29810;55.848;37.368;2023-06-19T15:49:39;5.55;;;2.83;;
44147;SDS011;29810;55.848;37.368;2023-06-19T15:52:40;4.22;;;2.72;;
44147;SDS011;29810;55.848;37.368;2023-06-19T15:55:43;4.78;;;3.00;;
44147;SDS011;29810;55.848;37.368;2023-06-19T15:58:44;5.90;;;2.50;;
44147;SDS011;29810;55.848;37.368;2023-06-19T16:01:50;4.22;;;2.95;;
44147;SDS011;29810;55.848;37.368;2023-06-19T16:04:53;4.70;;;2.80;;
44147;SDS011;29810;55.848;37.368;2023-06-19T16:07:54;4.18;;;2.65;;
44147;SDS011;29810;55.848;37.368;2023-06-19T16:10:57;5.53;;;2.60;;
44147;SDS011;29810;55.848;37.368;2023-06-19T16:13:59;4.53;;;3.10;;
44147;SDS011;29810;55.848;37.368;2023-06-19T16:17:03;5.40;;;3.10;;
44147;SDS011;29810;55.848;37.368;2023-06-19T16:20:05;4.78;;;2.85;;
44147;SDS011;29810;55.848;37.368;2023-06-19T16:23:12;5.78;;;3.00;;
44147;SDS011;29810;55.848;37.368;2023-06-19T16:26:15;6.10;;;3.78;;
44147;SDS011;29810;55.848;37.368;2023-06-19T16:29:18;8.45;;;4.53;;
44147;SDS011;29810;55.848;37.368;2023-06-19T16:32:20;5.87;;;3.70;;
44147;SDS011;29810;55.848;37.368;2023-06-19T16:35:23;7.90;;;4.10;;
44147;SDS011;29810;55.848;37.368;2023-06-19T16:38:25;6.68;;;3.53;;
44147;SDS011;29810;55.848;37.368;2023-06-19T16:41:29;8.40;;;3.17;;
44147;SDS011;29810;55.848;37.368;2023-06-19T16:44:31;4.28;;;2.70;;
44147;SDS011;29810;55.848;37.368;2023-06-19T16:47:34;4.93;;;2.55;;
44147;SDS011;29810;55.848;37.368;2023-06-19T16:50:35;6.18;;;2.92;;
44147;SDS011;29810;55.848;37.368;2023-06-19T16:53:38;3.40;;;2.53;;
44147;SDS011;29810;55.848;37.368;2023-06-19T16:56:42;6.32;;;2.72;;
44147;SDS011;29810;55.848;37.368;2023-06-19T16:59:46;6.15;;;2.53;;
44147;SDS011;29810;55.848;37.368;2023-06-19T17:02:48;6.40;;;2.83;;
44147;SDS011;29810;55.848;37.368;2023-06-19T17:05:57;5.75;;;3.00;;
44147;SDS011;29810;55.848;37.368;2023-06-19T17:08:58;4.45;;;2.75;;
44147;SDS011;29810;55.848;37.368;2023-06-19T17:12:02;4.80;;;2.75;;
44147;SDS011;29810;55.848;37.368;2023-06-19T17:15:04;6.32;;;2.70;;
44147;SDS011;29810;55.848;37.368;2023-06-19T17:18:10;4.93;;;2.60;;
44147;SDS011;29810;55.848;37.368;2023-06-19T17:21:12;5.32;;;2.83;;
44147;SDS011;29810;55.848;37.368;2023-06-19T17:24:14;4.68;;;2.92;;
44147;SDS011;29810;55.848;37.368;2023-06-19T17:27:16;5.18;;;2.50;;
44147;SDS011;29810;55.848;37.368;2023-06-19T17:30:19;3.30;;;2.50;;
44147;SDS011;29810;55.848;37.368;2023-06-19T17:33:21;4.80;;;3.05;;
44147;SDS011;29810;55.848;37.368;2023-06-19T17:36:24;3.28;;;2.67;;
44147;SDS011;29810;55.848;37.368;2023-06-19T17:39:25;4.50;;;2.92;;
44147;SDS011;29810;55.848;37.368;2023-06-19T17:42:29;4.50;;;2.72;;
44147;SDS011;29810;55.848;37.368;2023-06-19T17:45:31;5.53;;;2.85;;
44147;SDS011;29810;55.848;37.368;2023-06-19T17:48:36;6.50;;;3.33;;
44147;SDS011;29810;55.848;37.368;2023-06-19T17:51:37;4.68;;;3.22;;
44147;SDS011;29810;55.848;37.368;2023-06-19T17:54:40;4.93;;;2.60;;
44147;SDS011;29810;55.848;37.368;2023-06-19T17:57:41;6.00;;;3.40;;
44147;SDS011;29810;55.848;37.368;2023-06-19T18:00:45;5.90;;;3.08;;
44147;SDS011;29810;55.848;37.368;2023-06-19T18:03:47;5.37;;;3.40;;
44147;SDS011;29810;55.848;37.368;2023-06-19T18:06:49;4.55;;;3.10;;
44147;SDS011;29810;55.848;37.368;2023-06-19T18:09:51;5.62;;;3.30;;
44147;SDS011;29810;55.848;37.368;2023-06-19T18:12:56;5.80;;;3.42;;
44147;SDS011;29810;55.848;37.368;2023-06-19T18:16:01;6.15;;;3.00;;
44147;SDS011;29810;55.848;37.368;2023-06-19T18:19:02;4.90;;;3.42;;